M I D A S
Marine Information and Data Acquisition System
Tripno 1001 of the Zeeleeuw from 2005-08-04 09:37:51 to 2005-08-04 16:00:00
Back to CruiseResearch ActivitiesStationsMapUnderway DataData graphs

EquipmentUnitsComment
TimeDGPSUTC
LatitudeDGPSDM.mWGS84
LongitudeDGPSDM.mWGS84
HeadingGyrodeg 
SOGDGPSknotsSpeed over ground
COGDGPSdegCourse over ground
DepthEcho soundermeters200 kHz
Missing or incorrect values are displayed as -999
Navigation data collected by the RV Zeeleeuw from 2005-08-04 09:39:46 to 2005-08-16 12:13:05
                                                                                    Next 1000 lines
Time Latitude Longitude Heading SOG COG Depth
2005-08-04 09:39:57 51°13.597 2°56.092 116.8 1.1 289 7.5
2005-08-04 09:40:02 51°13.598 2°56.089 117.2 1.1 289 7.9
2005-08-04 09:40:06 51°13.599 2°56.085 117.9 2.3 296 -999
2005-08-04 09:40:11 51°13.601 2°56.079 118.6 2.4 296 -999
2005-08-04 09:40:18 51°13.603 2°56.072 119 2.8 296 -999
2005-08-04 09:40:22 51°13.605 2°56.067 119 2.8 296 -999
2005-08-04 09:40:27 51°13.607 2°56.06 119 2.8 296 -999
2005-08-04 09:40:31 51°13.609 2°56.054 119 3.3 296 -999
2005-08-04 09:40:37 51°13.611 2°56.046 119 3.6 295 -999
2005-08-04 09:40:42 51°13.614 2°56.037 119 3.9 295 -999
2005-08-04 09:40:47 51°13.616 2°56.03 119 3.9 295 -999
2005-08-04 09:40:51 51°13.618 2°56.023 119.6 4.1 296 -999
2005-08-04 09:40:57 51°13.621 2°56.013 120 4.1 296 -999
2005-08-04 09:41:03 51°13.624 2°56.004 120.6 4.2 296 -999
2005-08-04 09:41:07 51°13.626 2°55.996 121.2 4.3 297 -999
2005-08-04 09:41:12 51°13.629 2°55.988 122 4.4 297 -999
2005-08-04 09:41:17 51°13.632 2°55.979 122.4 4.5 298 -999
2005-08-04 09:41:22 51°13.635 2°55.97 122.4 4.5 298 -999
2005-08-04 09:41:27 51°13.638 2°55.961 122.4 4.5 298 -999
2005-08-04 09:41:31 51°13.641 2°55.954 122.5 4.5 299 -999
2005-08-04 09:41:37 51°13.644 2°55.944 122.5 4.5 298 -999
2005-08-04 09:41:42 51°13.647 2°55.936 122.4 4.5 299 -999
2005-08-04 09:41:46 51°13.65 2°55.929 122.1 4.5 299 -999
2005-08-04 09:41:52 51°13.653 2°55.917 121.7 4.5 298 -999
2005-08-04 09:41:57 51°13.656 2°55.909 121.1 4.5 298 -999
2005-08-04 09:42:02 51°13.659 2°55.9 120.3 4.5 297 -999
2005-08-04 09:42:07 51°13.662 2°55.891 119.3 4.5 297 -999
2005-08-04 09:42:12 51°13.664 2°55.882 118.2 4.4 295 -999
2005-08-04 09:42:17 51°13.667 2°55.874 117 4.3 294 -999
2005-08-04 09:42:22 51°13.669 2°55.865 115.9 4.2 293 -999
2005-08-04 09:42:27 51°13.671 2°55.857 114.5 4 292 -999
2005-08-04 09:42:31 51°13.672 2°55.851 113.2 3.8 291 -999
2005-08-04 09:42:37 51°13.674 2°55.843 111.8 3.8 291 9.9
2005-08-04 09:42:42 51°13.675 2°55.836 111 3.8 291 9.8
2005-08-04 09:42:46 51°13.676 2°55.83 110 3.5 288 9.4
2005-08-04 09:42:51 51°13.677 2°55.822 108.8 3.4 286 9.3
2005-08-04 09:42:57 51°13.679 2°55.814 107.7 3.4 286 9.3
2005-08-04 09:43:02 51°13.68 2°55.806 106.8 3.4 286 9.6
2005-08-04 09:43:07 51°13.681 2°55.798 106 3.4 282 -999
2005-08-04 09:43:12 51°13.682 2°55.791 105.2 3.4 282 -999
2005-08-04 09:43:17 51°13.683 2°55.785 105.1 3.2 281 -999
2005-08-04 09:43:22 51°13.684 2°55.779 105.1 3.2 281 -999
2005-08-04 09:43:27 51°13.684 2°55.772 105.2 3 283 -999
2005-08-04 09:43:32 51°13.685 2°55.767 105.1 2.4 281 -999
2005-08-04 09:43:37 51°13.685 2°55.763 104.3 2.4 281 -999
2005-08-04 09:43:42 51°13.686 2°55.761 103 2.4 281 13
2005-08-04 09:43:47 51°13.686 2°55.759 102 2.4 281 13
2005-08-04 09:43:52 51°13.686 2°55.759 100.1 2.4 281 12.9
2005-08-04 09:43:57 51°13.686 2°55.761 97.1 2.4 281 12.9
2005-08-04 09:44:02 51°13.687 2°55.764 91.7 -999 -999 12.7
2005-08-04 09:44:06 51°13.687 2°55.767 85.1 1.3 76 12.7
2005-08-04 09:44:11 51°13.688 2°55.769 76.3 1.4 72 12.6
2005-08-04 09:44:16 51°13.688 2°55.769 72.3 0.7 72 4.9
2005-08-04 09:44:22 51°13.687 2°55.769 68.2 0.7 72 12.6
2005-08-04 09:44:26 51°13.687 2°55.767 64.7 0.7 72 12.7
2005-08-04 09:44:30 51°13.686 2°55.765 62.2 0.7 72 12.8
2005-08-04 09:44:37 51°13.684 2°55.761 60.5 0.7 72 13
2005-08-04 09:44:42 51°13.683 2°55.759 59.6 1.5 233 4.7
2005-08-04 09:44:47 51°13.681 2°55.756 59.6 1.5 231 -999
2005-08-04 09:44:51 51°13.681 2°55.755 59.7 1.3 234 -999
2005-08-04 09:44:57 51°13.681 2°55.756 59.6 1.3 234 -999
2005-08-04 09:45:02 51°13.682 2°55.757 55.6 0.6 44 -999
2005-08-04 09:45:07 51°13.684 2°55.76 51.4 0.6 44 -999
2005-08-04 09:45:12 51°13.686 2°55.763 44.6 0.6 44 4.9
2005-08-04 09:45:17 51°13.69 2°55.766 38.3 0.6 44 4.9
2005-08-04 09:45:22 51°13.694 2°55.768 30 0.6 44 13.4
2005-08-04 09:45:26 51°13.698 2°55.769 21.4 0.6 44 14.3
2005-08-04 09:45:31 51°13.703 2°55.77 13.6 -999 -999 13.7
2005-08-04 09:45:37 51°13.708 2°55.769 8.1 3.3 359 13.4
2005-08-04 09:45:42 51°13.712 2°55.768 1.5 3.3 359 13.5
2005-08-04 09:45:47 51°13.717 2°55.766 355 3.4 348 13.1
2005-08-04 09:45:52 51°13.721 2°55.763 348.6 3.4 348 13
2005-08-04 09:45:57 51°13.726 2°55.759 341.8 3.4 348 12.7
2005-08-04 09:46:01 51°13.73 2°55.754 334.9 3.4 348 11.8
2005-08-04 09:46:06 51°13.733 2°55.748 328 3.4 348 11.6
2005-08-04 09:46:11 51°13.737 2°55.742 321.6 3.4 348 11.2
2005-08-04 09:46:15 51°13.74 2°55.736 319.2 4.4 314 10.5
2005-08-04 09:46:22 51°13.746 2°55.725 317.1 4.6 313 10.1
2005-08-04 09:46:26 51°13.751 2°55.717 315.6 5.1 312 10.1
2005-08-04 09:46:32 51°13.757 2°55.707 315.2 5.6 313 10
2005-08-04 09:46:36 51°13.762 2°55.699 316 6 314 10
2005-08-04 09:46:42 51°13.769 2°55.688 317.5 6 314 10.2
2005-08-04 09:46:46 51°13.775 2°55.68 319.6 6.4 316 10.2
2005-08-04 09:46:52 51°13.783 2°55.669 321.6 6.4 316 10.3
2005-08-04 09:46:57 51°13.791 2°55.659 324 6.4 316 10.5
2005-08-04 09:47:02 51°13.8 2°55.65 326.3 6.4 316 11
2005-08-04 09:47:07 51°13.808 2°55.641 328.7 6.4 316 11.3
2005-08-04 09:47:12 51°13.817 2°55.633 331.5 6.4 316 11.2
2005-08-04 09:47:16 51°13.825 2°55.627 334.9 7.5 331 11
2005-08-04 09:47:22 51°13.837 2°55.618 337.8 7.5 331 10.8
2005-08-04 09:47:26 51°13.846 2°55.611 338.4 7.9 335 10.9
2005-08-04 09:47:31 51°13.856 2°55.604 339.4 7.9 336 11.1
2005-08-04 09:47:36 51°13.866 2°55.597 340.8 8.1 337 10.9
2005-08-04 09:47:42 51°13.878 2°55.589 340.8 8.1 337 10.9
2005-08-04 09:47:47 51°13.888 2°55.582 340.6 8.2 337 10.7
2005-08-04 09:47:52 51°13.899 2°55.575 340.8 8.2 337 10.6
2005-08-04 09:47:57 51°13.909 2°55.568 341.1 8.2 337 10.9
2005-08-04 09:48:02 51°13.92 2°55.56 340.1 8.2 337 11.1
2005-08-04 09:48:07 51°13.93 2°55.552 339.4 8.2 337 11.5
2005-08-04 09:48:11 51°13.94 2°55.545 339.3 8.2 337 11.4
2005-08-04 09:48:15 51°13.948 2°55.539 339.6 8.4 336 11.4
2005-08-04 09:48:22 51°13.962 2°55.53 340 8.4 336 11.2
2005-08-04 09:48:27 51°13.973 2°55.523 340.3 8.4 337 11.2
2005-08-04 09:48:31 51°13.983 2°55.516 341 8.4 337 11.3
2005-08-04 09:48:37 51°13.995 2°55.508 341.1 8.4 337 11.7
2005-08-04 09:48:42 51°14.005 2°55.501 340.7 8.4 337 11.4
2005-08-04 09:48:46 51°14.015 2°55.494 340.6 8.5 338 11.1
2005-08-04 09:48:52 51°14.027 2°55.486 341.1 8.5 337 10.9
2005-08-04 09:48:56 51°14.037 2°55.479 341.1 8.5 337 11
2005-08-04 09:49:02 51°14.049 2°55.471 340.7 8.5 336 10.8
2005-08-04 09:49:06 51°14.058 2°55.464 340.4 8.5 336 10.8
2005-08-04 09:49:11 51°14.068 2°55.458 340.5 8.5 336 11
2005-08-04 09:49:17 51°14.081 2°55.448 340.3 8.4 335 10.8
2005-08-04 09:49:22 51°14.091 2°55.44 339.6 8.4 335 10.8
2005-08-04 09:49:26 51°14.1 2°55.434 339.5 8.4 335 10.5
2005-08-04 09:49:31 51°14.112 2°55.425 339.3 8.4 335 10.7
2005-08-04 09:49:37 51°14.123 2°55.417 339.4 8.4 335 10.8
2005-08-04 09:49:42 51°14.134 2°55.408 338.9 8.4 335 10.8
2005-08-04 09:49:46 51°14.144 2°55.4 337.3 8.7 332 10.8
2005-08-04 09:49:51 51°14.154 2°55.39 335.8 8.8 331 10.9
2005-08-04 09:49:55 51°14.163 2°55.382 334.5 9 330 11
2005-08-04 09:50:02 51°14.178 2°55.367 333.5 9 330 11.2
2005-08-04 09:50:07 51°14.189 2°55.355 332.6 9.5 327 11.4
2005-08-04 09:50:12 51°14.2 2°55.343 331.4 9.5 327 11.5
2005-08-04 09:50:17 51°14.211 2°55.33 330 9.5 327 11.1
2005-08-04 09:50:22 51°14.222 2°55.316 328.6 9.5 327 11
2005-08-04 09:50:27 51°14.232 2°55.301 326 10.1 320 11.4
2005-08-04 09:50:32 51°14.243 2°55.286 323.2 10.1 320 11.6
2005-08-04 09:50:36 51°14.252 2°55.272 321.6 10.3 317 11
2005-08-04 09:50:42 51°14.263 2°55.253 320.3 10.3 317 11
2005-08-04 09:50:46 51°14.271 2°55.24 318.4 10.3 317 10.9
2005-08-04 09:50:51 51°14.282 2°55.221 317.1 10.3 317 11
2005-08-04 09:50:57 51°14.292 2°55.201 315.7 10.3 317 10.9
2005-08-04 09:51:02 51°14.301 2°55.183 313.5 10.3 317 10.9
2005-08-04 09:51:06 51°14.308 2°55.168 312.4 10.5 308 11
2005-08-04 09:51:12 51°14.318 2°55.146 311.7 10.5 308 11
2005-08-04 09:51:16 51°14.325 2°55.13 311.1 10.5 308 11
2005-08-04 09:51:22 51°14.335 2°55.108 310.5 10.5 308 11
2005-08-04 09:51:26 51°14.342 2°55.092 310 10.5 308 11.1
2005-08-04 09:51:31 51°14.352 2°55.071 309.7 10.8 305 11.2
2005-08-04 09:51:35 51°14.358 2°55.055 309.1 10.8 305 11.1
2005-08-04 09:51:42 51°14.37 2°55.029 308.6 10.8 305 11
2005-08-04 09:51:47 51°14.379 2°55.01 309.1 11.1 306 11
2005-08-04 09:51:52 51°14.39 2°54.991 311.3 11.1 306 11.1
2005-08-04 09:51:56 51°14.4 2°54.975 313.7 11.2 314 11.1
2005-08-04 09:52:02 51°14.412 2°54.957 317.8 11.2 315 11.2
2005-08-04 09:52:06 51°14.423 2°54.942 321.1 11.3 318 11.4
2005-08-04 09:52:11 51°14.435 2°54.926 324 11.3 318 11
2005-08-04 09:52:16 51°14.448 2°54.912 325.9 11.4 324 11.1
2005-08-04 09:52:22 51°14.463 2°54.897 328.7 11.4 324 11.1
2005-08-04 09:52:27 51°14.476 2°54.885 332 11.4 331 11.1
2005-08-04 09:52:31 51°14.489 2°54.876 335.7 11.4 332 11
2005-08-04 09:52:37 51°14.506 2°54.866 339.6 11.4 337 10.9
2005-08-04 09:52:42 51°14.521 2°54.858 343.5 11.4 337 10.8
2005-08-04 09:52:46 51°14.533 2°54.853 347.2 11.5 344 10.7
2005-08-04 09:52:52 51°14.552 2°54.845 349.8 11.5 344 10.7
2005-08-04 09:52:57 51°14.568 2°54.839 351.1 11.7 346 10.7
2005-08-04 09:53:02 51°14.583 2°54.832 351.4 11.7 346 10.7
2005-08-04 09:53:06 51°14.598 2°54.826 351.2 11.9 345 10.6
2005-08-04 09:53:11 51°14.612 2°54.819 350.5 11.9 345 10.5
2005-08-04 09:53:17 51°14.631 2°54.81 349.4 11.9 343 10.6
2005-08-04 09:53:22 51°14.647 2°54.801 348.4 12 342 10.4
2005-08-04 09:53:26 51°14.659 2°54.795 348 12 341 10.4
2005-08-04 09:53:32 51°14.68 2°54.783 347.5 12 341 10.4
2005-08-04 09:53:37 51°14.694 2°54.776 347.4 12 341 10.4
2005-08-04 09:53:42 51°14.71 2°54.767 347.4 12 341 10.4
2005-08-04 09:53:46 51°14.724 2°54.759 347.5 12 341 10.4
2005-08-04 09:53:51 51°14.74 2°54.751 347.6 12 341 10.4
2005-08-04 09:53:55 51°14.752 2°54.745 347.8 12.1 342 10.3
2005-08-04 09:54:02 51°14.773 2°54.735 348.2 12.1 342 10.2
2005-08-04 09:54:06 51°14.788 2°54.728 348.8 12.1 344 10.2
2005-08-04 09:54:12 51°14.805 2°54.72 349.1 12.1 343 10.2
2005-08-04 09:54:17 51°14.821 2°54.712 349.3 12.1 344 10.1
2005-08-04 09:54:22 51°14.837 2°54.704 349.3 12.1 344 10.1
2005-08-04 09:54:27 51°14.853 2°54.697 349.1 12.1 343 10.1
2005-08-04 09:54:31 51°14.868 2°54.69 349 12.1 343 10
2005-08-04 09:54:37 51°14.885 2°54.682 348.8 12 344 10
2005-08-04 09:54:42 51°14.901 2°54.674 348.9 12 344 10
2005-08-04 09:54:47 51°14.917 2°54.666 349.1 12 344 9.9
2005-08-04 09:54:52 51°14.934 2°54.659 348.7 12 344 9.8
2005-08-04 09:54:57 51°14.949 2°54.651 348.3 12 344 9.8
2005-08-04 09:55:02 51°14.966 2°54.643 348.3 12 344 9.8
2005-08-04 09:55:07 51°14.982 2°54.635 348.3 12 343 9.7
2005-08-04 09:55:11 51°14.994 2°54.63 348.6 12.1 343 9.6
2005-08-04 09:55:17 51°15.014 2°54.62 348.8 12.1 343 9.6
2005-08-04 09:55:22 51°15.03 2°54.613 348.8 12.1 343 9.5
2005-08-04 09:55:26 51°15.044 2°54.606 348.9 12.1 343 9.4
2005-08-04 09:55:31 51°15.06 2°54.598 348.8 12.1 343 9.3
2005-08-04 09:55:35 51°15.073 2°54.592 348.7 12 343 9.3
2005-08-04 09:55:42 51°15.094 2°54.582 348.5 12 343 9.2
2005-08-04 09:55:46 51°15.108 2°54.574 348.4 12.1 343 9.2
2005-08-04 09:55:52 51°15.125 2°54.566 348.1 12.1 342 9.3
2005-08-04 09:55:57 51°15.141 2°54.558 348.2 12 343 9.3
2005-08-04 09:56:02 51°15.158 2°54.551 348.6 12 343 9.3
2005-08-04 09:56:06 51°15.171 2°54.545 349.1 12.1 344 9.3
2005-08-04 09:56:12 51°15.19 2°54.535 349.1 12.1 344 9.4
2005-08-04 09:56:17 51°15.206 2°54.528 349.1 12.1 344 9.5
2005-08-04 09:56:22 51°15.222 2°54.519 348.8 12.1 344 9.6
2005-08-04 09:56:26 51°15.236 2°54.512 348.7 12.1 343 9.5
2005-08-04 09:56:31 51°15.252 2°54.504 348.4 12.1 343 9.7
2005-08-04 09:56:35 51°15.265 2°54.498 348.3 12.1 342 9.7
2005-08-04 09:56:42 51°15.286 2°54.487 348.4 12.1 343 9.8
2005-08-04 09:56:46 51°15.3 2°54.481 348.7 12.1 343 9.8
2005-08-04 09:56:52 51°15.318 2°54.472 349.2 12 343 9.9
2005-08-04 09:56:56 51°15.332 2°54.465 349.1 12 343 10
2005-08-04 09:57:02 51°15.35 2°54.457 349.2 12 343 10
2005-08-04 09:57:06 51°15.363 2°54.451 349.3 12.1 343 10.1
2005-08-04 09:57:12 51°15.382 2°54.442 349.8 12.1 343 10.1
2005-08-04 09:57:17 51°15.398 2°54.434 349.4 12.1 343 10.2
2005-08-04 09:57:22 51°15.414 2°54.426 349.3 12.1 343 10.2
2005-08-04 09:57:26 51°15.428 2°54.419 349.1 12.1 343 10.2
2005-08-04 09:57:32 51°15.446 2°54.411 349.2 12.1 343 10.3
2005-08-04 09:57:36 51°15.46 2°54.404 349.5 12.1 343 10.3
2005-08-04 09:57:42 51°15.478 2°54.396 349.5 12.1 343 10.4
2005-08-04 09:57:47 51°15.495 2°54.387 349.4 12 343 10.4
2005-08-04 09:57:52 51°15.511 2°54.379 349 12 343 10.4
2005-08-04 09:57:57 51°15.525 2°54.372 349 12 342 10.6
2005-08-04 09:58:02 51°15.541 2°54.364 348.4 12 341 10.6
2005-08-04 09:58:07 51°15.557 2°54.356 348.2 12 341 10.7
2005-08-04 09:58:11 51°15.571 2°54.348 348.5 12 341 10.8
2005-08-04 09:58:17 51°15.588 2°54.34 348.8 11.9 343 10.8
2005-08-04 09:58:22 51°15.604 2°54.333 349.3 11.9 343 10.9
2005-08-04 09:58:27 51°15.62 2°54.325 349.5 11.9 343 11
2005-08-04 09:58:31 51°15.634 2°54.318 349.7 11.8 343 11
2005-08-04 09:58:37 51°15.651 2°54.311 349.9 11.8 344 11.1
2005-08-04 09:58:42 51°15.667 2°54.303 350 11.8 343 11.1
2005-08-04 09:58:46 51°15.681 2°54.296 349.6 11.8 343 11.2
2005-08-04 09:58:52 51°15.698 2°54.288 349.7 11.8 343 11.3
2005-08-04 09:58:57 51°15.714 2°54.281 349.3 11.8 343 11.3
2005-08-04 09:59:02 51°15.729 2°54.273 349.3 11.8 343 11.4
2005-08-04 09:59:07 51°15.745 2°54.266 349.1 11.8 343 11.4
2005-08-04 09:59:12 51°15.761 2°54.259 349.3 11.9 344 11.5
2005-08-04 09:59:17 51°15.777 2°54.251 349.4 11.9 344 11.6
2005-08-04 09:59:22 51°15.793 2°54.243 349.3 11.9 344 11.6
2005-08-04 09:59:27 51°15.81 2°54.234 348.8 11.9 342 11.7
2005-08-04 09:59:32 51°15.824 2°54.227 348.2 11.9 342 11.7
2005-08-04 09:59:37 51°15.839 2°54.218 347.7 11.8 341 11.8
2005-08-04 09:59:42 51°15.855 2°54.209 347.6 11.8 341 11.8
2005-08-04 09:59:46 51°15.867 2°54.203 347.4 11.9 341 11.9
2005-08-04 09:59:51 51°15.885 2°54.193 347.7 11.9 341 11.9
2005-08-04 09:59:57 51°15.902 2°54.184 347.8 11.9 341 12
2005-08-04 10:00:02 51°15.918 2°54.176 348.2 11.9 341 12
2005-08-04 10:00:06 51°15.931 2°54.17 348.7 11.2 343 12
2005-08-04 10:00:10 51°15.942 2°54.165 349.3 11.2 343 11.9
2005-08-04 10:00:17 51°15.959 2°54.157 349.5 9.8 344 12
2005-08-04 10:00:22 51°15.97 2°54.152 350.1 9.5 345 12.1
2005-08-04 10:00:26 51°15.98 2°54.148 350.5 9.5 345 12.1
2005-08-04 10:00:31 51°15.992 2°54.144 351.2 9.5 345 12.2
2005-08-04 10:00:37 51°16.003 2°54.141 352.4 8 347 12.3
2005-08-04 10:00:42 51°16.012 2°54.138 354.3 7.4 351 12.3
2005-08-04 10:00:47 51°16.022 2°54.137 355.8 7 353 12.2
2005-08-04 10:00:52 51°16.031 2°54.136 357.7 7 353 12.4
2005-08-04 10:00:57 51°16.04 2°54.135 359.8 6.2 358 12.3
2005-08-04 10:01:02 51°16.047 2°54.135 1.7 6.2 359 12.3
2005-08-04 10:01:07 51°16.055 2°54.136 2.8 6 358 12.3
2005-08-04 10:01:12 51°16.063 2°54.135 4.1 6 358 12.2
2005-08-04 10:01:15 51°16.068 2°54.136 4.7 5.4 1 12.3
2005-08-04 10:01:22 51°16.078 2°54.137 5.2 5.4 1 12.4
2005-08-04 10:01:26 51°16.083 2°54.137 5.7 4.9 4 12.3
2005-08-04 10:01:30 51°16.088 2°54.138 7 4.9 4 12.3
2005-08-04 10:01:37 51°16.096 2°54.14 8.2 4.5 7 12.4
2005-08-04 10:01:42 51°16.102 2°54.142 9.3 4.3 10 12.3
2005-08-04 10:01:47 51°16.108 2°54.144 10.8 4.3 10 12.4
2005-08-04 10:01:52 51°16.113 2°54.146 12.6 4 13 12.4
2005-08-04 10:01:56 51°16.118 2°54.148 14.2 3.9 15 12.4
2005-08-04 10:02:02 51°16.123 2°54.15 17 3.8 18 12.4
2005-08-04 10:02:07 51°16.128 2°54.153 18.4 3.8 18 12.4
2005-08-04 10:02:11 51°16.132 2°54.156 20.3 3.6 21 12.4
2005-08-04 10:02:17 51°16.137 2°54.159 21.5 3.6 22 12.4
2005-08-04 10:02:22 51°16.142 2°54.162 23 3.8 24 12.5
2005-08-04 10:02:26 51°16.146 2°54.166 24.6 3.9 26 12.4
2005-08-04 10:02:31 51°16.151 2°54.17 26.3 3.9 26 12.5
2005-08-04 10:02:37 51°16.157 2°54.175 27.7 3.9 28 12.5
2005-08-04 10:02:42 51°16.161 2°54.18 28.8 3.9 28 12.5
2005-08-04 10:02:46 51°16.165 2°54.184 30.8 3.9 28 12.5
2005-08-04 10:02:52 51°16.17 2°54.19 32.8 4.1 34 12.5
2005-08-04 10:02:57 51°16.175 2°54.197 35.2 4.1 34 12.5
2005-08-04 10:03:02 51°16.179 2°54.202 37.6 4.2 38 12.4
2005-08-04 10:03:06 51°16.184 2°54.208 38.5 4.3 42 12.3
2005-08-04 10:03:11 51°16.188 2°54.213 39.3 4.2 41 12.4
2005-08-04 10:03:17 51°16.193 2°54.221 39.4 4.2 41 12.4
2005-08-04 10:03:22 51°16.197 2°54.227 38.9 4.2 41 12.3
2005-08-04 10:03:27 51°16.202 2°54.233 38.4 4.3 40 12.3
2005-08-04 10:03:32 51°16.206 2°54.239 37.7 4.3 40 12.4
2005-08-04 10:03:36 51°16.211 2°54.244 37.1 4.3 40 12.4
2005-08-04 10:03:42 51°16.215 2°54.25 36.6 4.2 39 12.4
2005-08-04 10:03:47 51°16.22 2°54.256 35.7 4 38 12.4
2005-08-04 10:03:51 51°16.223 2°54.26 34.8 3.7 38 12.6
2005-08-04 10:03:57 51°16.227 2°54.266 33.3 3.7 38 12.5
2005-08-04 10:04:02 51°16.231 2°54.269 32.2 3.2 38 12.4
2005-08-04 10:04:07 51°16.235 2°54.273 31.3 3.2 38 12.5
2005-08-04 10:04:12 51°16.238 2°54.277 30 2.9 35 12.4
2005-08-04 10:04:17 51°16.241 2°54.28 29.6 2.9 35 12.5
2005-08-04 10:04:22 51°16.243 2°54.283 28.7 2.9 35 12.6
2005-08-04 10:04:26 51°16.246 2°54.286 27.6 2.4 33 12.5
2005-08-04 10:04:31 51°16.249 2°54.288 27 2.4 33 12.6
2005-08-04 10:04:37 51°16.251 2°54.291 26.5 2.3 33 12.6
2005-08-04 10:04:42 51°16.254 2°54.294 26.1 2.2 33 12.5
2005-08-04 10:04:47 51°16.256 2°54.296 25.8 2.1 33 12.6
2005-08-04 10:04:52 51°16.259 2°54.299 25.5 1.9 34 12.5
2005-08-04 10:04:57 51°16.26 2°54.301 25.2 1.9 35 12.6
2005-08-04 10:05:02 51°16.261 2°54.302 24.8 1.9 35 12.7
2005-08-04 10:05:06 51°16.262 2°54.303 24.5 1.9 35 12.5
2005-08-04 10:05:12 51°16.263 2°54.306 24.8 1.9 35 12.3
2005-08-04 10:05:17 51°16.264 2°54.308 25.6 0.8 58 12.4
2005-08-04 10:05:22 51°16.265 2°54.31 26.2 0.9 60 12.5
2005-08-04 10:05:27 51°16.265 2°54.31 26.2 0.8 66 12.5
2005-08-04 10:05:32 51°16.264 2°54.311 25.9 0.8 66 12.6
2005-08-04 10:05:35 51°16.264 2°54.313 25.4 0.6 88 12.5
2005-08-04 10:05:42 51°16.264 2°54.315 25.3 0.6 88 12.5
2005-08-04 10:05:47 51°16.264 2°54.316 25.1 0.6 88 12.5
2005-08-04 10:05:52 51°16.264 2°54.317 24.9 0.6 103 12.6
2005-08-04 10:05:56 51°16.263 2°54.318 24.5 0.6 101 12.6
2005-08-04 10:06:02 51°16.263 2°54.32 24.2 0.6 101 12.5
2005-08-04 10:06:07 51°16.263 2°54.321 24 0.6 101 12.5
2005-08-04 10:06:12 51°16.263 2°54.323 23.9 0.6 106 12.6
2005-08-04 10:06:17 51°16.262 2°54.324 23.5 0.6 106 12.6
2005-08-04 10:06:22 51°16.262 2°54.325 23.1 0.6 112 12.6
2005-08-04 10:06:26 51°16.262 2°54.326 22.8 0.5 115 12.6
2005-08-04 10:06:32 51°16.261 2°54.327 22.3 0.5 115 12.6
2005-08-04 10:06:37 51°16.261 2°54.328 21.6 0.6 118 12.5
2005-08-04 10:06:42 51°16.26 2°54.33 21.2 0.6 116 12.5
2005-08-04 10:06:47 51°16.26 2°54.331 21 0.6 121 12.5
2005-08-04 10:06:52 51°16.26 2°54.332 20.8 0.7 121 12.6
2005-08-04 10:06:57 51°16.259 2°54.333 20.5 0.7 121 12.6
2005-08-04 10:07:02 51°16.258 2°54.335 20.4 0.7 119 12.5
2005-08-04 10:07:06 51°16.258 2°54.336 20.3 0.7 124 12.5
2005-08-04 10:07:12 51°16.257 2°54.337 20.3 0.7 124 12.5
2005-08-04 10:07:17 51°16.257 2°54.338 20 0.7 122 12.5
2005-08-04 10:07:22 51°16.257 2°54.339 19.8 0.7 132 12.5
2005-08-04 10:07:27 51°16.256 2°54.341 19.7 0.7 127 12.5
2005-08-04 10:07:31 51°16.255 2°54.341 19.6 0.7 129 12.6
2005-08-04 10:07:37 51°16.255 2°54.343 19.3 0.6 131 12.6
2005-08-04 10:07:42 51°16.254 2°54.344 18.9 0.7 129 12.7
2005-08-04 10:07:47 51°16.253 2°54.345 18.8 0.7 129 12.6
2005-08-04 10:07:52 51°16.253 2°54.346 18.5 0.7 131 12.5
2005-08-04 10:07:57 51°16.252 2°54.348 18.4 0.7 131 12.5
2005-08-04 10:08:02 51°16.251 2°54.349 19 0.7 131 12.5
2005-08-04 10:08:06 51°16.251 2°54.349 19.3 0.7 142 12.6
2005-08-04 10:08:10 51°16.25 2°54.35 19.3 0.7 142 12.6
2005-08-04 10:08:17 51°16.248 2°54.351 19.4 0.9 146 12.6
2005-08-04 10:08:22 51°16.247 2°54.352 19.5 0.9 146 12.7
2005-08-04 10:08:26 51°16.246 2°54.353 19.8 0.9 146 12.6
2005-08-04 10:08:32 51°16.245 2°54.354 20.3 0.9 146 12.5
2005-08-04 10:08:37 51°16.243 2°54.355 21.4 1 156 12.6
2005-08-04 10:08:42 51°16.242 2°54.356 22.4 1 150 12.5
2005-08-04 10:08:47 51°16.241 2°54.357 23.4 1 150 12.6
2005-08-04 10:08:52 51°16.24 2°54.358 24.9 1 152 12.6
2005-08-04 10:08:57 51°16.238 2°54.359 26.2 1 155 12.7
2005-08-04 10:09:02 51°16.237 2°54.36 27.5 1 151 12.6
2005-08-04 10:09:06 51°16.236 2°54.361 28.6 1 156 12.6
2005-08-04 10:09:11 51°16.235 2°54.362 30.6 1 155 12.6
2005-08-04 10:09:17 51°16.233 2°54.363 31.5 1 155 12.6
2005-08-04 10:09:22 51°16.232 2°54.364 32.7 1 159 12.7
2005-08-04 10:09:26 51°16.231 2°54.365 33.9 1 155 12.7
2005-08-04 10:09:32 51°16.23 2°54.366 35.5 1 155 12.6
2005-08-04 10:09:37 51°16.229 2°54.367 36.6 1 155 12.5
2005-08-04 10:09:42 51°16.228 2°54.368 38.2 1 155 12.6
2005-08-04 10:09:46 51°16.226 2°54.368 39.2 1 155 12.6
2005-08-04 10:09:50 51°16.226 2°54.369 40.3 1 155 12.6
2005-08-04 10:09:57 51°16.224 2°54.37 41.3 -999 -999 12.6
2005-08-04 10:10:02 51°16.222 2°54.37 42.3 0.9 157 12.6
2005-08-04 10:10:07 51°16.221 2°54.371 43.1 0.9 157 12.5
2005-08-04 10:10:12 51°16.22 2°54.372 44.3 1 156 12.6
2005-08-04 10:10:17 51°16.219 2°54.373 45.1 0.9 156 12.5
2005-08-04 10:10:22 51°16.218 2°54.374 46.1 1 152 12.5
2005-08-04 10:10:27 51°16.217 2°54.375 47.1 0.9 152 12.6
2005-08-04 10:10:32 51°16.216 2°54.376 48 0.9 152 12.7
2005-08-04 10:10:37 51°16.214 2°54.377 48.7 0.8 156 12.7
2005-08-04 10:10:42 51°16.213 2°54.378 49.4 0.8 156 12.7
2005-08-04 10:10:47 51°16.212 2°54.378 50 0.9 155 12.7
2005-08-04 10:10:51 51°16.211 2°54.379 50.8 0.8 157 12.8
2005-08-04 10:10:57 51°16.21 2°54.38 51.5 0.8 157 12.8
2005-08-04 10:11:02 51°16.209 2°54.38 52.2 0.8 157 12.8
2005-08-04 10:11:06 51°16.208 2°54.381 52.6 0.8 155 12.7
2005-08-04 10:11:10 51°16.207 2°54.382 53.1 0.8 155 12.8
2005-08-04 10:11:17 51°16.206 2°54.383 53.5 0.8 150 12.8
2005-08-04 10:11:22 51°16.205 2°54.384 53.7 0.9 156 12.7
2005-08-04 10:11:26 51°16.204 2°54.385 54.4 0.9 156 12.5
2005-08-04 10:11:32 51°16.203 2°54.386 54.9 0.9 156 12.5
2005-08-04 10:11:37 51°16.202 2°54.388 55.7 0.9 151 12.5
2005-08-04 10:11:42 51°16.201 2°54.388 56 0.9 150 12.5
2005-08-04 10:11:47 51°16.2 2°54.389 56.2 0.9 150 12.6
2005-08-04 10:11:52 51°16.199 2°54.39 55.8 0.9 148 12.7
2005-08-04 10:11:57 51°16.198 2°54.391 55.8 0.8 152 12.7
2005-08-04 10:12:02 51°16.197 2°54.392 55.8 0.8 152 12.7
2005-08-04 10:12:06 51°16.196 2°54.393 55.8 0.8 151 12.7
2005-08-04 10:12:11 51°16.195 2°54.393 55.9 0.8 151 12.7
2005-08-04 10:12:17 51°16.193 2°54.395 55.9 0.8 147 12.9
2005-08-04 10:12:22 51°16.192 2°54.396 55.9 0.9 149 12.8
2005-08-04 10:12:27 51°16.191 2°54.397 56 0.9 147 12.6
2005-08-04 10:12:32 51°16.191 2°54.398 56.1 0.8 145 12.6
2005-08-04 10:12:36 51°16.19 2°54.399 56 0.8 149 12.6
2005-08-04 10:12:42 51°16.189 2°54.4 55.9 0.8 149 12.7
2005-08-04 10:12:47 51°16.188 2°54.401 55.8 0.7 143 12.8
2005-08-04 10:12:50 51°16.187 2°54.401 55.4 0.8 144 12.7
2005-08-04 10:12:57 51°16.186 2°54.403 55.1 0.8 144 12.7
2005-08-04 10:13:02 51°16.185 2°54.404 54.8 0.8 144 12.8
2005-08-04 10:13:06 51°16.184 2°54.405 54.7 0.8 144 12.6
2005-08-04 10:13:12 51°16.184 2°54.407 54.4 0.8 144 12.6
2005-08-04 10:13:17 51°16.182 2°54.407 54.6 0.8 144 12.7
2005-08-04 10:13:22 51°16.182 2°54.408 54.3 0.8 140 12.7
2005-08-04 10:13:27 51°16.181 2°54.41 54.2 0.8 139 12.6
2005-08-04 10:13:32 51°16.18 2°54.411 54.3 0.8 140 12.6
2005-08-04 10:13:36 51°16.179 2°54.412 54.2 0.8 137 12.6
2005-08-04 10:13:42 51°16.178 2°54.413 54.2 0.8 137 12.6
2005-08-04 10:13:46 51°16.177 2°54.414 54 0.8 140 12.7
2005-08-04 10:13:50 51°16.177 2°54.415 53.6 0.8 140 12.8
2005-08-04 10:13:57 51°16.176 2°54.417 53 0.8 140 12.7
2005-08-04 10:14:02 51°16.175 2°54.418 52.4 0.8 140 12.7
2005-08-04 10:14:06 51°16.174 2°54.419 52.5 0.8 140 12.5
2005-08-04 10:14:12 51°16.174 2°54.421 52.2 0.8 140 12.6
2005-08-04 10:14:17 51°16.173 2°54.422 51.9 -999 -999 12.8
2005-08-04 10:14:22 51°16.172 2°54.423 51.3 0.8 133 12.7
2005-08-04 10:14:26 51°16.171 2°54.424 50.8 0.8 133 12.6
2005-08-04 10:14:32 51°16.17 2°54.426 50.6 0.8 133 12.6
2005-08-04 10:14:36 51°16.17 2°54.427 50.3 0.9 132 12.7
2005-08-04 10:14:42 51°16.169 2°54.428 50 0.8 134 12.7
2005-08-04 10:14:47 51°16.168 2°54.43 49.4 0.8 134 12.7
2005-08-04 10:14:50 51°16.167 2°54.431 49.2 0.8 134 12.7
2005-08-04 10:14:57 51°16.167 2°54.433 49.1 0.7 130 12.7
2005-08-04 10:15:02 51°16.166 2°54.434 48.6 0.8 128 12.7
2005-08-04 10:15:07 51°16.165 2°54.435 48.3 0.8 131 12.8
2005-08-04 10:15:11 51°16.164 2°54.436 47.9 0.8 132 12.8
2005-08-04 10:15:17 51°16.164 2°54.437 47.3 0.8 132 12.7
2005-08-04 10:15:22 51°16.163 2°54.439 46.8 0.8 132 12.7
2005-08-04 10:15:26 51°16.162 2°54.44 46.4 0.8 133 12.7
2005-08-04 10:15:31 51°16.162 2°54.441 45.9 0.8 133 12.6
2005-08-04 10:15:37 51°16.161 2°54.442 45.6 0.8 129 12.7
2005-08-04 10:15:42 51°16.16 2°54.444 45.4 0.8 129 12.7
2005-08-04 10:15:46 51°16.16 2°54.445 44.9 0.7 128 12.7
2005-08-04 10:15:52 51°16.159 2°54.446 44.2 0.7 128 12.7
2005-08-04 10:15:57 51°16.158 2°54.447 43.7 0.7 128 12.7
2005-08-04 10:16:02 51°16.158 2°54.448 43.5 0.8 125 12.8
2005-08-04 10:16:06 51°16.157 2°54.45 43.1 0.8 125 12.8
2005-08-04 10:16:12 51°16.157 2°54.452 42.7 0.8 125 12.8
2005-08-04 10:16:17 51°16.156 2°54.453 42.3 0.8 125 12.8
2005-08-04 10:16:22 51°16.155 2°54.454 41.7 0.8 125 12.7
2005-08-04 10:16:26 51°16.155 2°54.456 40.9 0.8 124 12.8
2005-08-04 10:16:31 51°16.154 2°54.457 40.2 0.8 124 12.8
2005-08-04 10:16:37 51°16.153 2°54.458 39.8 0.8 124 12.8
2005-08-04 10:16:42 51°16.153 2°54.459 39.1 0.8 124 12.8
2005-08-04 10:16:46 51°16.152 2°54.461 38.5 0.8 131 12.7
2005-08-04 10:16:51 51°16.151 2°54.462 38 0.8 131 12.6
2005-08-04 10:16:57 51°16.151 2°54.464 37.7 0.7 128 12.7
2005-08-04 10:17:02 51°16.15 2°54.465 37.3 0.7 128 12.7
2005-08-04 10:17:06 51°16.15 2°54.466 36.9 0.8 124 12.8
2005-08-04 10:17:11 51°16.149 2°54.467 36.4 0.8 124 12.8
2005-08-04 10:17:17 51°16.148 2°54.469 36.1 0.8 122 12.7
2005-08-04 10:17:22 51°16.148 2°54.47 35.9 0.8 122 12.8
2005-08-04 10:17:26 51°16.147 2°54.471 35.6 0.8 126 12.8
2005-08-04 10:17:31 51°16.146 2°54.472 35.3 0.8 126 12.8
2005-08-04 10:17:37 51°16.146 2°54.474 35.2 0.8 128 12.8
2005-08-04 10:17:42 51°16.145 2°54.476 35 0.8 128 12.8
2005-08-04 10:17:47 51°16.144 2°54.477 35.1 0.8 128 12.7
2005-08-04 10:17:51 51°16.144 2°54.478 34.9 0.8 126 12.8
2005-08-04 10:17:57 51°16.143 2°54.48 34.7 0.8 126 12.8
2005-08-04 10:18:02 51°16.142 2°54.481 34.6 0.8 127 12.7
2005-08-04 10:18:07 51°16.142 2°54.482 34.3 0.8 122 12.6
2005-08-04 10:18:12 51°16.141 2°54.484 34.1 0.8 122 12.7
2005-08-04 10:18:17 51°16.14 2°54.485 33.8 0.8 126 12.8
2005-08-04 10:18:22 51°16.14 2°54.487 33.4 0.8 124 12.7
2005-08-04 10:18:26 51°16.139 2°54.489 33.3 0.8 128 12.7
2005-08-04 10:18:32 51°16.138 2°54.49 33.2 0.8 128 12.9
2005-08-04 10:18:37 51°16.137 2°54.491 33.1 0.8 126 12.9
2005-08-04 10:18:42 51°16.137 2°54.492 32.6 0.8 131 12.8
2005-08-04 10:18:47 51°16.136 2°54.494 32.7 0.8 131 12.8
2005-08-04 10:18:51 51°16.135 2°54.495 32.7 0.8 129 12.7
2005-08-04 10:18:57 51°16.135 2°54.497 32.8 0.8 129 12.8
2005-08-04 10:19:02 51°16.134 2°54.499 32.8 0.8 129 12.7
2005-08-04 10:19:06 51°16.133 2°54.5 32.9 0.9 128 12.7
2005-08-04 10:19:11 51°16.133 2°54.501 33.1 0.9 128 12.8
2005-08-04 10:19:17 51°16.132 2°54.503 33.3 0.8 127 12.8
2005-08-04 10:19:22 51°16.131 2°54.504 33.5 0.8 130 12.8
2005-08-04 10:19:27 51°16.131 2°54.506 33.3 0.8 130 12.8
2005-08-04 10:19:32 51°16.13 2°54.507 33.3 0.8 132 12.8
2005-08-04 10:19:37 51°16.129 2°54.508 33.3 0.8 126 12.8
2005-08-04 10:19:42 51°16.128 2°54.509 33.2 0.8 134 12.8
2005-08-04 10:19:47 51°16.127 2°54.511 33 0.8 134 12.7
2005-08-04 10:19:52 51°16.127 2°54.513 33.1 0.8 134 12.7
2005-08-04 10:19:57 51°16.126 2°54.514 33.6 0.8 133 12.6
2005-08-04 10:20:02 51°16.125 2°54.515 34.1 0.8 130 12.8
2005-08-04 10:20:07 51°16.124 2°54.517 34.7 0.8 130 12.7
2005-08-04 10:20:12 51°16.123 2°54.518 35.2 0.9 130 12.7
2005-08-04 10:20:17 51°16.122 2°54.52 35.6 0.9 133 12.7
2005-08-04 10:20:22 51°16.122 2°54.521 36.2 0.8 136 12.7
2005-08-04 10:20:27 51°16.121 2°54.522 36.3 0.9 131 12.8
2005-08-04 10:20:31 51°16.12 2°54.524 36.5 0.9 131 12.7
2005-08-04 10:20:37 51°16.119 2°54.526 36.5 0.9 131 12.7
2005-08-04 10:20:42 51°16.118 2°54.528 36.9 0.8 130 12.6
2005-08-04 10:20:47 51°16.118 2°54.529 37 0.9 131 12.7
2005-08-04 10:20:52 51°16.117 2°54.53 37.3 0.9 131 12.8
2005-08-04 10:20:57 51°16.116 2°54.532 37.2 0.9 131 12.7
2005-08-04 10:21:02 51°16.115 2°54.534 37.5 0.9 131 12.7
2005-08-04 10:21:07 51°16.114 2°54.535 37.8 0.9 129 12.8
2005-08-04 10:21:12 51°16.113 2°54.536 38 1 131 12.8
2005-08-04 10:21:17 51°16.111 2°54.541 38.3 1 131 12.7
2005-08-04 10:21:22 51°16.111 2°54.54 38.5 1 131 12.8
2005-08-04 10:21:26 51°16.11 2°54.541 38.8 0.9 133 12.7
2005-08-04 10:21:31 51°16.11 2°54.542 39.1 0.9 133 12.8
2005-08-04 10:21:37 51°16.108 2°54.544 39.3 0.9 133 12.8
2005-08-04 10:21:42 51°16.108 2°54.546 39.3 0.9 133 12.6
2005-08-04 10:21:46 51°16.107 2°54.547 39.8 1 133 12.5
2005-08-04 10:21:51 51°16.106 2°54.548 40.2 1 133 12.6
2005-08-04 10:21:57 51°16.105 2°54.55 40.3 0.9 133 12.7
2005-08-04 10:22:02 51°16.105 2°54.551 40.6 0.9 133 12.7
2005-08-04 10:22:06 51°16.104 2°54.553 40.6 0.9 130 12.8
2005-08-04 10:22:11 51°16.103 2°54.554 40.8 0.9 130 12.8
2005-08-04 10:22:17 51°16.102 2°54.556 40.9 0.9 134 12.8
2005-08-04 10:22:22 51°16.101 2°54.557 40.9 0.9 134 12.8
2005-08-04 10:22:27 51°16.102 2°54.558 40.8 0.9 128 12.9
2005-08-04 10:22:32 51°16.1 2°54.56 40.6 0.9 128 12.7
2005-08-04 10:22:36 51°16.099 2°54.561 41 0.9 135 12.6
2005-08-04 10:22:42 51°16.098 2°54.563 41.4 0.9 137 12.7
2005-08-04 10:22:47 51°16.097 2°54.564 41.6 0.9 137 12.7
2005-08-04 10:22:52 51°16.096 2°54.566 41.8 0.8 137 12.7
2005-08-04 10:22:57 51°16.095 2°54.567 42 0.8 137 12.6
2005-08-04 10:23:02 51°16.095 2°54.568 42.2 0.8 137 12.6
2005-08-04 10:23:06 51°16.094 2°54.569 42.4 0.9 138 12.6
2005-08-04 10:23:10 51°16.093 2°54.57 42.8 0.9 138 12.7
2005-08-04 10:23:17 51°16.092 2°54.573 43.1 0.9 136 12.7
2005-08-04 10:23:22 51°16.091 2°54.574 43.4 0.9 133 12.7
2005-08-04 10:23:26 51°16.091 2°54.575 43.6 0.9 133 12.7
2005-08-04 10:23:32 51°16.089 2°54.576 43.6 0.9 133 12.6
2005-08-04 10:23:37 51°16.089 2°54.578 43.5 0.8 137 12.7
2005-08-04 10:23:42 51°16.088 2°54.579 43.5 0.8 135 12.7
2005-08-04 10:23:47 51°16.087 2°54.58 43.4 0.8 137 12.7
2005-08-04 10:23:51 51°16.086 2°54.582 43.2 0.8 137 12.8
2005-08-04 10:23:57 51°16.085 2°54.582 43 0.8 137 12.8
2005-08-04 10:24:02 51°16.084 2°54.584 43.1 0.9 134 12.7
2005-08-04 10:24:07 51°16.083 2°54.585 43.2 0.9 138 12.6
2005-08-04 10:24:11 51°16.083 2°54.587 43.5 0.9 137 12.7
2005-08-04 10:24:15 51°16.082 2°54.588 43.7 1 136 12.6
2005-08-04 10:24:22 51°16.081 2°54.59 44 1 136 12.6
2005-08-04 10:24:26 51°16.08 2°54.591 44.3 0.9 137 12.7
2005-08-04 10:24:31 51°16.079 2°54.592 44.5 0.9 137 12.6
2005-08-04 10:24:37 51°16.078 2°54.594 44.5 0.9 137 12.7
2005-08-04 10:24:42 51°16.077 2°54.595 44.7 0.9 135 12.7
2005-08-04 10:24:47 51°16.076 2°54.597 44.9 0.8 137 12.7
2005-08-04 10:24:52 51°16.075 2°54.598 45.2 0.9 133 12.7
2005-08-04 10:24:57 51°16.074 2°54.599 45.4 0.8 134 12.6
2005-08-04 10:25:02 51°16.074 2°54.601 45.6 0.8 134 12.5
2005-08-04 10:25:06 51°16.073 2°54.602 45.6 0.9 134 12.6
2005-08-04 10:25:11 51°16.072 2°54.603 45.4 0.9 134 12.6
2005-08-04 10:25:17 51°16.071 2°54.605 45.2 0.8 136 12.6
2005-08-04 10:25:22 51°16.07 2°54.606 45.1 0.8 136 12.6
2005-08-04 10:25:27 51°16.069 2°54.607 45.1 0.9 133 12.6
2005-08-04 10:25:31 51°16.068 2°54.609 45 0.9 133 12.6
2005-08-04 10:25:37 51°16.068 2°54.61 44.9 0.9 137 12.5
2005-08-04 10:25:42 51°16.067 2°54.612 45.1 0.9 137 12.5
2005-08-04 10:25:47 51°16.066 2°54.613 45.1 0.8 133 12.5
2005-08-04 10:25:52 51°16.065 2°54.614 45.4 0.8 133 12.7
2005-08-04 10:25:57 51°16.064 2°54.616 45.5 0.8 132 12.5
2005-08-04 10:26:02 51°16.063 2°54.617 45.7 0.9 135 12.5
2005-08-04 10:26:06 51°16.063 2°54.618 45.8 0.8 136 12.5
2005-08-04 10:26:11 51°16.062 2°54.62 46.3 0.9 133 12.5
2005-08-04 10:26:17 51°16.061 2°54.622 46.5 0.9 133 12.5
2005-08-04 10:26:22 51°16.06 2°54.623 46.8 0.9 136 12.4
2005-08-04 10:26:27 51°16.059 2°54.624 46.9 0.9 132 12.5
2005-08-04 10:26:31 51°16.059 2°54.626 46.7 0.8 131 12.5
2005-08-04 10:26:37 51°16.058 2°54.627 46.6 0.9 133 12.6
2005-08-04 10:26:42 51°16.057 2°54.629 46.4 0.9 132 12.6
2005-08-04 10:26:46 51°16.056 2°54.63 46.5 0.8 127 12.7
2005-08-04 10:26:51 51°16.055 2°54.632 46.4 0.8 127 12.6
2005-08-04 10:26:57 51°16.054 2°54.633 46.5 0.8 127 12.6
2005-08-04 10:27:02 51°16.054 2°54.635 46.9 0.8 127 12.6
2005-08-04 10:27:06 51°16.053 2°54.636 47.3 1 129 12.6
2005-08-04 10:27:11 51°16.052 2°54.638 47.6 1 129 12.7
2005-08-04 10:27:17 51°16.051 2°54.639 47.7 0.8 131 12.6
2005-08-04 10:27:22 51°16.05 2°54.641 47.9 0.8 131 12.6
2005-08-04 10:27:27 51°16.049 2°54.643 48.1 0.8 130 12.6
2005-08-04 10:27:32 51°16.048 2°54.644 48 0.8 130 12.6
2005-08-04 10:27:37 51°16.047 2°54.646 48.2 0.9 129 12.6
2005-08-04 10:27:42 51°16.047 2°54.647 48.3 0.9 129 12.7
2005-08-04 10:27:47 51°16.046 2°54.648 48.6 0.9 135 12.6
2005-08-04 10:27:52 51°16.045 2°54.65 48.6 0.9 130 12.5
2005-08-04 10:27:57 51°16.044 2°54.652 49 0.9 130 12.4
2005-08-04 10:28:02 51°16.044 2°54.654 49.1 0.9 130 12.5
2005-08-04 10:28:06 51°16.043 2°54.655 49.1 0.8 130 12.4
2005-08-04 10:28:11 51°16.042 2°54.657 49.3 0.8 130 12.5
2005-08-04 10:28:17 51°16.041 2°54.658 49.3 0.8 130 12.5
2005-08-04 10:28:22 51°16.041 2°54.66 49.3 0.8 130 12.6
2005-08-04 10:28:26 51°16.04 2°54.661 49.3 0.9 128 12.6
2005-08-04 10:28:31 51°16.039 2°54.663 49.3 0.9 128 12.6
2005-08-04 10:28:37 51°16.038 2°54.664 49.1 0.9 127 12.6
2005-08-04 10:28:42 51°16.037 2°54.666 48.9 0.9 127 12.5
2005-08-04 10:28:47 51°16.037 2°54.668 49 0.8 133 12.5
2005-08-04 10:28:52 51°16.036 2°54.669 48.9 0.8 133 12.4
2005-08-04 10:28:56 51°16.035 2°54.67 48.6 0.9 132 12.4
2005-08-04 10:29:02 51°16.035 2°54.673 48.2 0.9 125 12.4
2005-08-04 10:29:07 51°16.034 2°54.674 48 0.9 125 12.4
2005-08-04 10:29:12 51°16.033 2°54.676 47.6 0.8 133 12.5
2005-08-04 10:29:17 51°16.032 2°54.677 47.2 0.8 133 12.4
2005-08-04 10:29:22 51°16.031 2°54.678 46.8 0.8 133 12.4
2005-08-04 10:29:26 51°16.031 2°54.68 46.5 1 125 12.5
2005-08-04 10:29:31 51°16.03 2°54.681 46.4 1 125 12.5
2005-08-04 10:29:37 51°16.029 2°54.683 46.1 1 125 12.5
2005-08-04 10:29:42 51°16.028 2°54.684 46 1 125 12.4
2005-08-04 10:29:47 51°16.028 2°54.686 45.9 1 127 12.7
2005-08-04 10:29:52 51°16.026 2°54.687 45.9 1 127 12.7
2005-08-04 10:29:56 51°16.026 2°54.689 45.7 0.9 130 12.4
2005-08-04 10:30:02 51°16.025 2°54.691 46.1 1 130 12.3
2005-08-04 10:30:07 51°16.024 2°54.693 46.6 1 130 12.4
2005-08-04 10:30:12 51°16.023 2°54.695 46.9 0.9 130 12.3
2005-08-04 10:30:17 51°16.023 2°54.696 47 0.9 130 12.4
2005-08-04 10:30:22 51°16.021 2°54.698 47.7 0.9 130 12.5
2005-08-04 10:30:26 51°16.021 2°54.699 47.9 1 121 12.5
2005-08-04 10:30:32 51°16.02 2°54.701 48 1 121 12.5
2005-08-04 10:30:37 51°16.019 2°54.703 48.2 1 121 12.6
2005-08-04 10:30:42 51°16.018 2°54.705 48.2 1 121 12.6
2005-08-04 10:30:46 51°16.018 2°54.706 48.2 0.9 127 12.6
2005-08-04 10:30:51 51°16.017 2°54.708 48.4 0.9 127 12.6
2005-08-04 10:30:57 51°16.016 2°54.711 48.4 1 122 12.6
2005-08-04 10:31:02 51°16.015 2°54.712 48.3 1 122 12.6
2005-08-04 10:31:07 51°16.015 2°54.714 48.2 0.9 122 12.6
2005-08-04 10:31:12 51°16.014 2°54.716 48 0.9 122 12.6
2005-08-04 10:31:15 51°16.014 2°54.717 47.8 0.9 119 12.4
2005-08-04 10:31:22 51°16.013 2°54.72 47.7 0.9 119 12.3
2005-08-04 10:31:26 51°16.013 2°54.721 47.9 0.9 120 12.4
2005-08-04 10:31:30 51°16.012 2°54.723 47.8 0.9 120 12.4
2005-08-04 10:31:37 51°16.012 2°54.726 47 1.2 88 12.4
2005-08-04 10:31:42 51°16.013 2°54.729 45.7 1.3 83 12.5
2005-08-04 10:31:47 51°16.014 2°54.732 43.9 1.3 76 12.5
2005-08-04 10:31:52 51°16.015 2°54.735 41.7 1.6 64 12.5
2005-08-04 10:31:57 51°16.016 2°54.739 39.7 1.7 62 12.6
2005-08-04 10:32:02 51°16.018 2°54.741 36.2 1.9 55 12.6
2005-08-04 10:32:06 51°16.019 2°54.745 33.9 2 48 12.6
2005-08-04 10:32:12 51°16.022 2°54.749 30.3 2.1 46 12.5
2005-08-04 10:32:17 51°16.025 2°54.752 27.5 2.2 39 12.4
2005-08-04 10:32:22 51°16.027 2°54.754 24.6 2.2 39 12.6
2005-08-04 10:32:26 51°16.029 2°54.757 21.3 2.4 33 12.5
2005-08-04 10:32:31 51°16.032 2°54.76 18.7 2.4 33 12.4
2005-08-04 10:32:37 51°16.035 2°54.763 16.4 2.4 28 12.3
2005-08-04 10:32:42 51°16.038 2°54.765 13.8 2.5 25 12.4
2005-08-04 10:32:46 51°16.041 2°54.766 11.6 2.4 20 12.4
2005-08-04 10:32:52 51°16.045 2°54.768 8.3 2.4 20 12.5
2005-08-04 10:32:57 51°16.049 2°54.769 5.1 2.4 12 12.6
2005-08-04 10:33:02 51°16.052 2°54.77 1.3 2.4 8 12.6
2005-08-04 10:33:07 51°16.055 2°54.77 357.2 2.4 5 12.7
2005-08-04 10:33:11 51°16.058 2°54.769 352.7 2.4 5 12.6
2005-08-04 10:33:15 51°16.061 2°54.769 348 2.4 354 12.6
2005-08-04 10:33:22 51°16.065 2°54.767 343.3 2.4 354 12.7
2005-08-04 10:33:26 51°16.067 2°54.765 338.7 2.3 343 12.7
2005-08-04 10:33:30 51°16.07 2°54.764 333.8 2.3 343 12.7
2005-08-04 10:33:37 51°16.074 2°54.76 329.5 2.5 332 12.6
2005-08-04 10:33:42 51°16.077 2°54.757 326.6 2.5 329 12.7
2005-08-04 10:33:46 51°16.079 2°54.755 324.8 2.7 328 12.6
2005-08-04 10:33:51 51°16.082 2°54.751 323.6 2.7 328 12.6
2005-08-04 10:33:57 51°16.086 2°54.747 322.4 2.7 327 12.6
2005-08-04 10:34:02 51°16.089 2°54.743 321.8 2.9 325 12.6
2005-08-04 10:34:07 51°16.093 2°54.739 321.2 2.9 324 12.6
2005-08-04 10:34:12 51°16.096 2°54.735 320.7 3 322 12.7
2005-08-04 10:34:17 51°16.099 2°54.73 320 3.1 320 12.6
2005-08-04 10:34:22 51°16.102 2°54.726 319.1 3.1 320 12.7
2005-08-04 10:34:27 51°16.106 2°54.721 318.3 3.1 320 12.7
2005-08-04 10:34:31 51°16.109 2°54.717 317.1 3.2 316 12.6
2005-08-04 10:34:37 51°16.112 2°54.711 316 3.3 314 12.7
2005-08-04 10:34:42 51°16.115 2°54.706 315.1 3.3 314 12.8
2005-08-04 10:34:47 51°16.119 2°54.7 314.4 3.3 313 12.8
2005-08-04 10:34:51 51°16.121 2°54.695 313.3 3.4 313 12.8
2005-08-04 10:34:57 51°16.125 2°54.689 312.8 3.4 313 12.7
2005-08-04 10:35:02 51°16.128 2°54.683 311.7 3.4 313 12.8
2005-08-04 10:35:06 51°16.13 2°54.677 310.2 3.4 313 12.9
2005-08-04 10:35:12 51°16.133 2°54.67 307.9 3.4 313 12.8
2005-08-04 10:35:16 51°16.135 2°54.665 305.5 3.3 301 12.8
2005-08-04 10:35:22 51°16.137 2°54.658 302.8 3.3 300 12.9
2005-08-04 10:35:27 51°16.139 2°54.652 300.9 3.2 300 12.9
2005-08-04 10:35:31 51°16.141 2°54.647 298.1 3.2 300 12.8
2005-08-04 10:35:37 51°16.142 2°54.64 295.7 3.2 300 12.9
2005-08-04 10:35:42 51°16.143 2°54.635 293.4 2.9 290 13
2005-08-04 10:35:47 51°16.144 2°54.628 291.9 2.9 288 12.9
2005-08-04 10:35:52 51°16.145 2°54.623 289.6 2.9 288 13.1
2005-08-04 10:35:57 51°16.146 2°54.617 288.1 2.9 288 13
2005-08-04 10:36:02 51°16.146 2°54.611 287 2.5 283 12.9
2005-08-04 10:36:07 51°16.147 2°54.606 286.3 2.5 280 13
2005-08-04 10:36:12 51°16.148 2°54.601 285.9 2.5 280 13
2005-08-04 10:36:15 51°16.148 2°54.597 286.2 2.5 281 12.9
2005-08-04 10:36:22 51°16.149 2°54.59 286.8 2.5 281 13.1
2005-08-04 10:36:26 51°16.149 2°54.587 287.9 2.3 280 13.1
2005-08-04 10:36:30 51°16.15 2°54.582 288.5 2.3 280 12.9
2005-08-04 10:36:37 51°16.15 2°54.576 289.3 2.2 278 13.1
2005-08-04 10:36:42 51°16.151 2°54.573 290.6 2.2 278 13.2
2005-08-04 10:36:46 51°16.152 2°54.569 291.1 1.9 281 13
2005-08-04 10:36:51 51°16.152 2°54.564 291.7 1.9 281 13
2005-08-04 10:36:57 51°16.153 2°54.56 293.1 1.9 288 13.1
2005-08-04 10:37:02 51°16.154 2°54.557 296.1 1.9 288 13.1
2005-08-04 10:37:07 51°16.155 2°54.553 298.6 1.9 288 13.2
2005-08-04 10:37:11 51°16.156 2°54.55 301.8 1.9 288 13.2
2005-08-04 10:37:17 51°16.158 2°54.547 304.8 1.9 288 13.2
2005-08-04 10:37:22 51°16.16 2°54.544 307.2 1.8 309 13.2
2005-08-04 10:37:26 51°16.161 2°54.542 309 1.7 313 13.2
2005-08-04 10:37:32 51°16.163 2°54.539 311.2 1.7 313 13.2
2005-08-04 10:37:37 51°16.165 2°54.536 312.1 1.8 317 13.3
2005-08-04 10:37:42 51°16.167 2°54.534 313.4 1.7 318 13.1
2005-08-04 10:37:46 51°16.168 2°54.532 314 1.7 320 13.1
2005-08-04 10:37:51 51°16.17 2°54.53 314.3 1.7 320 13.2
2005-08-04 10:37:57 51°16.172 2°54.527 314.2 1.7 321 13.2
2005-08-04 10:38:02 51°16.174 2°54.524 313.3 1.7 321 13.2
2005-08-04 10:38:06 51°16.175 2°54.522 311.9 1.7 319 13.3
2005-08-04 10:38:12 51°16.177 2°54.519 309.9 1.7 319 13.2
2005-08-04 10:38:17 51°16.179 2°54.517 308.4 1.7 319 13.2
2005-08-04 10:38:22 51°16.18 2°54.514 307 1.6 314 13.2
2005-08-04 10:38:27 51°16.182 2°54.512 305.2 1.6 312 13.3
2005-08-04 10:38:32 51°16.183 2°54.509 303.8 1.6 311 13.3
2005-08-04 10:38:37 51°16.184 2°54.506 303.3 1.6 308 13.2
2005-08-04 10:38:42 51°16.186 2°54.503 302.6 1.6 308 13.3
2005-08-04 10:38:46 51°16.187 2°54.501 301.9 1.6 308 13.2
2005-08-04 10:38:52 51°16.188 2°54.498 301.3 1.6 308 13.3
2005-08-04 10:38:57 51°16.19 2°54.494 301.1 1.6 308 13.2
2005-08-04 10:39:02 51°16.191 2°54.492 300.4 1.7 304 13.3
2005-08-04 10:39:06 51°16.192 2°54.489 300 1.6 306 13.2
2005-08-04 10:39:11 51°16.193 2°54.486 299.2 1.6 303 13.2
2005-08-04 10:39:17 51°16.195 2°54.482 298.3 1.6 301 13.1
2005-08-04 10:39:22 51°16.196 2°54.479 297.4 1.6 301 13.2
2005-08-04 10:39:27 51°16.197 2°54.475 296.6 1.7 298 13.2
2005-08-04 10:39:32 51°16.198 2°54.472 295.8 1.7 298 13.3
2005-08-04 10:39:37 51°16.199 2°54.469 295.3 1.7 296 13.3
2005-08-04 10:39:42 51°16.2 2°54.466 294.4 1.7 295 13.3
2005-08-04 10:39:47 51°16.201 2°54.463 293.9 1.7 295 13.2
2005-08-04 10:39:51 51°16.202 2°54.459 293.5 1.7 295 13.2
2005-08-04 10:39:57 51°16.203 2°54.455 293 1.7 295 13.2
2005-08-04 10:40:02 51°16.204 2°54.452 292.5 1.7 290 13.2
2005-08-04 10:40:06 51°16.204 2°54.45 292.2 1.7 293 13.2
2005-08-04 10:40:11 51°16.205 2°54.445 291.5 1.7 293 13.3
2005-08-04 10:40:17 51°16.206 2°54.442 291.2 1.7 291 13.4
2005-08-04 10:40:22 51°16.207 2°54.438 291 1.7 291 13.3
2005-08-04 10:40:27 51°16.208 2°54.434 290.6 1.7 289 13.2
2005-08-04 10:40:32 51°16.208 2°54.431 290 1.7 289 13.3
2005-08-04 10:40:37 51°16.209 2°54.427 289.7 1.7 288 13.3
2005-08-04 10:40:42 51°16.21 2°54.423 289.4 1.7 288 13.3
2005-08-04 10:40:47 51°16.211 2°54.42 289 1.8 288 13.3
2005-08-04 10:40:51 51°16.211 2°54.417 288.7 1.7 286 13.4
2005-08-04 10:40:57 51°16.212 2°54.412 288.4 1.7 289 13.3
2005-08-04 10:41:02 51°16.213 2°54.41 288.4 1.8 284 13.3
2005-08-04 10:41:07 51°16.213 2°54.406 288.8 1.8 284 13.2
2005-08-04 10:41:12 51°16.214 2°54.402 288.7 1.6 284 13.2
2005-08-04 10:41:17 51°16.215 2°54.399 289 1.6 289 13.2
2005-08-04 10:41:22 51°16.215 2°54.396 290 1.5 288 13.3
2005-08-04 10:41:27 51°16.216 2°54.393 290.8 1.5 291 13.3
2005-08-04 10:41:32 51°16.217 2°54.39 292 1.5 293 13.4
2005-08-04 10:41:37 51°16.218 2°54.387 293.4 1.5 295 13.3
2005-08-04 10:41:42 51°16.219 2°54.384 294.8 1.5 296 13.4
2005-08-04 10:41:46 51°16.22 2°54.382 295.8 1.5 299 13.4
2005-08-04 10:41:51 51°16.221 2°54.379 297 1.4 302 13.4
2005-08-04 10:41:57 51°16.222 2°54.377 297.7 1.4 302 13.4
2005-08-04 10:42:02 51°16.223 2°54.374 298.5 1.4 304 13.3
2005-08-04 10:42:06 51°16.224 2°54.372 299.4 1.4 304 13.3
2005-08-04 10:42:12 51°16.225 2°54.369 300.3 1.4 304 13.3
2005-08-04 10:42:17 51°16.226 2°54.367 300.9 1.4 305 13.3
2005-08-04 10:42:22 51°16.227 2°54.364 300.9 1.4 307 13.3
2005-08-04 10:42:27 51°16.229 2°54.362 300.6 1.3 308 13.3
2005-08-04 10:42:31 51°16.23 2°54.36 300.1 1.3 308 13.3
2005-08-04 10:42:37 51°16.231 2°54.357 299.3 1.3 308 13.3
2005-08-04 10:42:42 51°16.232 2°54.355 298.4 1.3 307 13.2
2005-08-04 10:42:47 51°16.233 2°54.353 297.4 1.3 307 13.2
2005-08-04 10:42:52 51°16.234 2°54.35 296.6 1.3 307 13.3
2005-08-04 10:42:57 51°16.235 2°54.348 296.1 1.3 307 13.4
2005-08-04 10:43:02 51°16.236 2°54.345 295.6 1.3 307 13.3
2005-08-04 10:43:06 51°16.237 2°54.343 295.5 1.3 304 13.3
2005-08-04 10:43:11 51°16.238 2°54.341 295.8 1.3 304 13.4
2005-08-04 10:43:15 51°16.239 2°54.339 296.1 1.3 308 13.4
2005-08-04 10:43:22 51°16.24 2°54.336 296 1.3 308 13.3
2005-08-04 10:43:27 51°16.241 2°54.333 295.7 1.3 308 13.3
2005-08-04 10:43:32 51°16.242 2°54.331 295.1 1.3 308 13.3
2005-08-04 10:43:37 51°16.243 2°54.329 294.6 1.3 299 13.3
2005-08-04 10:43:42 51°16.244 2°54.327 294.2 1.2 303 13.3
2005-08-04 10:43:47 51°16.245 2°54.324 293.8 1.2 303 13.3
2005-08-04 10:43:51 51°16.245 2°54.322 293.3 1.3 304 13.3
2005-08-04 10:43:57 51°16.246 2°54.32 293.4 1.3 302 13.3
2005-08-04 10:44:02 51°16.247 2°54.317 294.2 1.3 302 13.2
2005-08-04 10:44:07 51°16.248 2°54.315 295.1 1.1 305 13.2
2005-08-04 10:44:11 51°16.249 2°54.314 295.5 1 305 13.3
2005-08-04 10:44:16 51°16.25 2°54.312 295.9 1 306 13.3
2005-08-04 10:44:22 51°16.251 2°54.31 296.1 1 304 13.3
2005-08-04 10:44:27 51°16.251 2°54.309 296.7 0.9 314 13.3
2005-08-04 10:44:31 51°16.252 2°54.308 297.4 0.9 313 13.4
2005-08-04 10:44:36 51°16.253 2°54.307 298 0.8 316 13.4
2005-08-04 10:44:42 51°16.254 2°54.305 298.4 0.8 316 13.3
2005-08-04 10:44:46 51°16.254 2°54.305 299 0.7 321 13.3
2005-08-04 10:44:51 51°16.255 2°54.304 299.5 0.7 321 13.3
2005-08-04 10:44:57 51°16.256 2°54.303 300.1 0.7 329 13.3
2005-08-04 10:45:02 51°16.257 2°54.302 300.7 0.7 329 13.3
2005-08-04 10:45:06 51°16.258 2°54.302 301.6 0.7 335 13.4
2005-08-04 10:45:12 51°16.259 2°54.301 302.5 0.7 335 13.3
2005-08-04 10:45:17 51°16.26 2°54.302 303.3 0.7 335 13.3
2005-08-04 10:45:22 51°16.26 2°54.301 304.2 0.6 354 13.4
2005-08-04 10:45:27 51°16.261 2°54.302 305.4 0.6 354 13.4
2005-08-04 10:45:32 51°16.262 2°54.302 306.3 0.6 354 13.4
2005-08-04 10:45:36 51°16.263 2°54.302 307.6 0.6 11 13.4
2005-08-04 10:45:42 51°16.264 2°54.303 308.9 0.7 11 13.4
2005-08-04 10:45:47 51°16.265 2°54.303 310.2 0.7 11 13.4
2005-08-04 10:45:50 51°16.265 2°54.303 311.6 0.7 11 13.3
2005-08-04 10:45:57 51°16.266 2°54.304 312.9 0.7 29 13.4
2005-08-04 10:46:02 51°16.267 2°54.306 314.1 0.6 35 13.4
2005-08-04 10:46:07 51°16.267 2°54.306 315.2 0.7 34 13.4
2005-08-04 10:46:11 51°16.268 2°54.307 316.4 0.6 37 13.3
2005-08-04 10:46:17 51°16.269 2°54.309 317.8 0.6 37 13.3
2005-08-04 10:46:22 51°16.27 2°54.31 319.3 0.6 37 13.3
2005-08-04 10:46:26 51°16.27 2°54.311 320.4 0.9 50 13.4
2005-08-04 10:46:31 51°16.271 2°54.313 322.2 0.9 50 13.3
2005-08-04 10:46:37 51°16.272 2°54.314 323.5 0.8 50 13.3
2005-08-04 10:46:42 51°16.273 2°54.316 324.8 0.8 50 13.3
2005-08-04 10:46:46 51°16.273 2°54.318 326 0.8 54 13.4
2005-08-04 10:46:52 51°16.274 2°54.32 327.4 0.8 54 13.4
2005-08-04 10:46:57 51°16.274 2°54.322 328.7 0.8 54 13.4
2005-08-04 10:47:02 51°16.275 2°54.324 330.1 1.1 74 13.4
2005-08-04 10:47:06 51°16.275 2°54.326 331.6 1.1 81 13.4
2005-08-04 10:47:11 51°16.275 2°54.328 333.4 1.1 83 13.3
2005-08-04 10:47:17 51°16.275 2°54.331 335.4 1.2 86 13.4
2005-08-04 10:47:22 51°16.274 2°54.334 337.6 1.2 86 13.4
2005-08-04 10:47:27 51°16.274 2°54.337 339.8 1.3 97 13.3
2005-08-04 10:47:31 51°16.274 2°54.34 342.5 1.3 97 13.4
2005-08-04 10:47:37 51°16.273 2°54.343 345.5 1.3 97 13.4
2005-08-04 10:47:42 51°16.272 2°54.346 348.7 1.4 107 13.4
2005-08-04 10:47:47 51°16.272 2°54.349 352 1.4 110 13.4
2005-08-04 10:47:52 51°16.271 2°54.352 354.9 1.4 110 13.4
2005-08-04 10:47:57 51°16.27 2°54.355 357.8 1.4 121 13.4
2005-08-04 10:48:02 51°16.269 2°54.357 0.7 1.4 121 13.4
2005-08-04 10:48:06 51°16.268 2°54.359 3.9 1.4 127 13.4
2005-08-04 10:48:11 51°16.266 2°54.362 7.2 1.3 130 13.4
2005-08-04 10:48:17 51°16.265 2°54.364 9.5 1.3 130 13.4
2005-08-04 10:48:22 51°16.264 2°54.366 12 1.3 130 13.4
2005-08-04 10:48:27 51°16.262 2°54.368 14.1 1.3 130 13.4
2005-08-04 10:48:31 51°16.261 2°54.369 16.3 1.3 130 13.4
2005-08-04 10:48:37 51°16.259 2°54.371 18.3 1.4 138 13.4
2005-08-04 10:48:42 51°16.258 2°54.373 20.3 1.4 138 13.4
2005-08-04 10:48:45 51°16.257 2°54.374 22.5 1.3 146 13.4
2005-08-04 10:48:52 51°16.254 2°54.375 24.7 1.3 146 13.4
2005-08-04 10:48:57 51°16.253 2°54.377 27.3 1.3 146 13.4
2005-08-04 10:49:02 51°16.252 2°54.378 29.7 1.3 146 13.4
2005-08-04 10:49:07 51°16.25 2°54.379 31.4 1.2 155 13.5
2005-08-04 10:49:12 51°16.248 2°54.38 33.4 1.2 155 13.6
2005-08-04 10:49:15 51°16.248 2°54.381 35.9 1.2 159 13.4
2005-08-04 10:49:22 51°16.245 2°54.382 37.9 1.2 159 13.4
2005-08-04 10:49:26 51°16.244 2°54.383 39.9 1.1 169 13.4
2005-08-04 10:49:30 51°16.243 2°54.383 41.8 1.1 169 13.4
2005-08-04 10:49:37 51°16.241 2°54.384 43.5 1.1 167 13.4
2005-08-04 10:49:42 51°16.239 2°54.385 45.5 1 167 13.4
2005-08-04 10:49:47 51°16.238 2°54.385 46.7 1 167 13.4
2005-08-04 10:49:52 51°16.236 2°54.386 48.3 1 167 13.4
2005-08-04 10:49:57 51°16.235 2°54.386 49.5 1.1 162 13.4
2005-08-04 10:50:02 51°16.234 2°54.387 50.7 1.1 162 13.5
2005-08-04 10:50:07 51°16.233 2°54.388 51.7 1.1 162 13.5
2005-08-04 10:50:12 51°16.233 2°54.39 53.1 0.9 129 13.5
2005-08-04 10:50:17 51°16.233 2°54.392 52.9 0.8 106 13.5
2005-08-04 10:50:22 51°16.233 2°54.395 51.9 1.3 89 13.5
2005-08-04 10:50:26 51°16.233 2°54.398 50.4 1.5 74 13.5
2005-08-04 10:50:31 51°16.234 2°54.402 48 1.5 74 13.6
2005-08-04 10:50:37 51°16.236 2°54.407 45.1 1.5 74 13.6
2005-08-04 10:50:42 51°16.238 2°54.411 42.4 1.5 74 13.5
2005-08-04 10:50:47 51°16.239 2°54.415 38.7 2.2 55 13.5
2005-08-04 10:50:52 51°16.241 2°54.419 34 2.2 55 13.5
2005-08-04 10:50:57 51°16.243 2°54.423 30.4 2.3 48 13.5
2005-08-04 10:51:02 51°16.246 2°54.426 26.7 2.3 48 13.5
2005-08-04 10:51:06 51°16.248 2°54.429 22.9 2.3 48 13.6
2005-08-04 10:51:12 51°16.252 2°54.433 18.8 2.3 48 13.6
2005-08-04 10:51:17 51°16.257 2°54.436 14.1 3.1 24 13.6
2005-08-04 10:51:22 51°16.261 2°54.438 8 3.2 20 13.5
2005-08-04 10:51:27 51°16.266 2°54.439 2.6 3.2 20 13.6
2005-08-04 10:51:32 51°16.271 2°54.438 354.1 3.5 -999 13.6
2005-08-04 10:51:37 51°16.275 2°54.437 348.4 3.5 359 13.5
2005-08-04 10:51:42 51°16.279 2°54.436 339.6 3.4 350 13.5
2005-08-04 10:51:46 51°16.282 2°54.435 333.6 2.7 348 13.6
2005-08-04 10:51:51 51°16.285 2°54.435 330.5 2.3 353 13.4
2005-08-04 10:51:57 51°16.287 2°54.435 328.1 2.3 353 13.4
2005-08-04 10:52:02 51°16.288 2°54.436 323.7 2.3 353 13.4
2005-08-04 10:52:07 51°16.289 2°54.438 320.8 1 46 13.4
2005-08-04 10:52:12 51°16.289 2°54.441 317.9 1.2 60 13.5
2005-08-04 10:52:17 51°16.29 2°54.444 315.6 1.1 77 13.5
2005-08-04 10:52:22 51°16.29 2°54.448 314.2 1.5 84 13.6
2005-08-04 10:52:26 51°16.289 2°54.451 314 1.7 96 13.5
2005-08-04 10:52:32 51°16.289 2°54.455 314.1 1.7 96 13.5
2005-08-04 10:52:37 51°16.289 2°54.459 314.3 1.7 96 13.6
2005-08-04 10:52:42 51°16.288 2°54.463 314.9 1.7 96 5.2
2005-08-04 10:52:47 51°16.288 2°54.467 315.8 1.6 97 -999
2005-08-04 10:52:52 51°16.288 2°54.469 317.1 1.6 97 4.8
2005-08-04 10:52:57 51°16.289 2°54.47 316.9 1.1 70 5.1
2005-08-04 10:53:02 51°16.29 2°54.471 314.7 1.1 70 4.7
2005-08-04 10:53:06 51°16.291 2°54.471 311.7 0.9 14 4.8
2005-08-04 10:53:11 51°16.292 2°54.47 307.3 0.9 14 4.9
2005-08-04 10:53:17 51°16.294 2°54.467 300 1.2 319 -999
2005-08-04 10:53:23 51°16.295 2°54.464 293.2 1.5 302 -999
2005-08-04 10:53:27 51°16.295 2°54.461 286 1.6 290 13.6
2005-08-04 10:53:31 51°16.296 2°54.458 279.2 1.7 285 13.6
2005-08-04 10:53:37 51°16.296 2°54.453 274.1 1.6 278 13.5
2005-08-04 10:53:42 51°16.296 2°54.45 268.3 1.6 278 13.5
2005-08-04 10:53:46 51°16.295 2°54.447 264.4 1.8 259 13.6
2005-08-04 10:53:52 51°16.294 2°54.443 260.2 1.7 257 13.5
2005-08-04 10:53:57 51°16.293 2°54.439 257.7 1.7 257 13.4
2005-08-04 10:54:02 51°16.292 2°54.435 254.6 1.7 257 13.5
2005-08-04 10:54:06 51°16.291 2°54.432 253.3 1.9 243 13.4
2005-08-04 10:54:12 51°16.29 2°54.428 253 1.9 243 13.5
2005-08-04 10:54:17 51°16.288 2°54.423 253.1 1.9 243 13.5
2005-08-04 10:54:22 51°16.287 2°54.42 253.2 2 242 13.5
2005-08-04 10:54:27 51°16.286 2°54.416 253.3 1.9 242 13.5
2005-08-04 10:54:31 51°16.284 2°54.413 253.4 2 241 13.6
2005-08-04 10:54:37 51°16.283 2°54.408 253.5 2 241 13.5
2005-08-04 10:54:42 51°16.282 2°54.405 253.9 2 241 13.6
2005-08-04 10:54:46 51°16.281 2°54.402 255.6 1.9 242 13.6
2005-08-04 10:54:52 51°16.279 2°54.397 257 1.9 248 13.4
2005-08-04 10:54:57 51°16.279 2°54.394 258.3 1.9 249 13.5
2005-08-04 10:55:02 51°16.278 2°54.389 259.9 1.9 250 13.5
2005-08-04 10:55:07 51°16.277 2°54.386 261 1.9 250 13.6
2005-08-04 10:55:12 51°16.276 2°54.381 262.8 1.9 255 13.6
2005-08-04 10:55:17 51°16.275 2°54.377 263.5 1.9 256 13.6
2005-08-04 10:55:22 51°16.275 2°54.374 263.6 1.8 254 13.6
2005-08-04 10:55:26 51°16.274 2°54.371 262.7 1.6 253 13.6
2005-08-04 10:55:31 51°16.274 2°54.368 261 1.6 251 13.5
2005-08-04 10:55:37 51°16.273 2°54.364 259.8 1.6 251 13.5
2005-08-04 10:55:42 51°16.272 2°54.362 259.2 1.4 248 13.6
2005-08-04 10:55:46 51°16.272 2°54.36 258.7 1.3 243 13.6
2005-08-04 10:55:51 51°16.271 2°54.358 257.7 1.1 245 13.4
2005-08-04 10:55:57 51°16.27 2°54.355 257.1 1 242 13.4
2005-08-04 10:56:02 51°16.269 2°54.354 256.2 1 239 13.4
2005-08-04 10:56:07 51°16.268 2°54.352 256 0.9 235 13.3
2005-08-04 10:56:12 51°16.267 2°54.35 255.2 0.7 232 13.3
2005-08-04 10:56:17 51°16.267 2°54.349 254.6 0.7 232 13.2
2005-08-04 10:56:22 51°16.266 2°54.349 254.2 0.7 232 13.4
2005-08-04 10:56:26 51°16.265 2°54.348 254 0.7 227 13.4
2005-08-04 10:56:32 51°16.264 2°54.345 253.9 0.7 227 13.5
2005-08-04 10:56:37 51°16.263 2°54.343 254 1.2 239 13.5
2005-08-04 10:56:42 51°16.262 2°54.34 254.3 1.4 243 13.6
2005-08-04 10:56:46 51°16.262 2°54.338 256.1 1.3 245 13.7
2005-08-04 10:56:52 51°16.261 2°54.335 258.9 1.3 245 13.8
2005-08-04 10:56:56 51°16.261 2°54.333 260.3 1.1 254 13.7
2005-08-04 10:57:02 51°16.26 2°54.331 261.4 1.1 251 13.7
2005-08-04 10:57:06 51°16.26 2°54.329 262.3 1 254 13.7
2005-08-04 10:57:12 51°16.259 2°54.327 263.3 1 254 13.7
2005-08-04 10:57:17 51°16.259 2°54.326 263.7 0.8 253 13.8
2005-08-04 10:57:22 51°16.259 2°54.325 264.5 0.7 250 13.6
2005-08-04 10:57:27 51°16.259 2°54.323 264.8 0.7 250 13.6
2005-08-04 10:57:32 51°16.258 2°54.322 265 0.5 253 13.7
2005-08-04 10:57:37 51°16.258 2°54.321 265.4 0.5 248 13.6
2005-08-04 10:57:42 51°16.258 2°54.321 265.5 0.4 253 13.7
2005-08-04 10:57:47 51°16.257 2°54.32 265.7 0.4 246 13.6
2005-08-04 10:57:51 51°16.257 2°54.32 266 0.4 246 13.6
2005-08-04 10:57:57 51°16.257 2°54.319 266 0.4 246 13.6
2005-08-04 10:58:02 51°16.257 2°54.319 266.1 0.2 241 13.7
2005-08-04 10:58:07 51°16.257 2°54.319 266.6 0.1 263 13.6
2005-08-04 10:58:12 51°16.257 2°54.318 266.6 -999 256 13.6
2005-08-04 10:58:14 51°16.257 2°54.318 266.8 -999 177 13.5
2005-08-04 10:58:22 51°16.257 2°54.319 266.8 -999 177 13.6
2005-08-04 10:58:27 51°16.257 2°54.319 266.9 0.1 100 13.6
2005-08-04 10:58:32 51°16.258 2°54.319 266.6 0.1 100 13.7
2005-08-04 10:58:37 51°16.258 2°54.32 266.4 0.2 84 13.6
2005-08-04 10:58:42 51°16.258 2°54.32 266.3 0.3 101 13.5
2005-08-04 10:58:46 51°16.258 2°54.321 266 0.3 101 13.5
2005-08-04 10:58:51 51°16.257 2°54.322 265.7 0.3 101 13.5
2005-08-04 10:58:57 51°16.257 2°54.323 265.4 0.5 104 13.4
2005-08-04 10:59:02 51°16.256 2°54.324 265 0.5 104 13.4
2005-08-04 10:59:07 51°16.256 2°54.325 264.5 0.4 109 13.5
2005-08-04 10:59:12 51°16.256 2°54.326 264.1 0.4 109 13.5
2005-08-04 10:59:17 51°16.256 2°54.327 264 0.4 109 13.6
2005-08-04 10:59:22 51°16.256 2°54.33 263.6 0.4 109 13.7
2005-08-04 10:59:27 51°16.256 2°54.331 263.7 0.6 95 13.6
2005-08-04 10:59:32 51°16.256 2°54.333 263.5 0.6 105 13.6
2005-08-04 10:59:36 51°16.256 2°54.334 263.2 0.8 99 13.6
2005-08-04 10:59:42 51°16.256 2°54.336 262.7 0.8 99 13.6
2005-08-04 10:59:47 51°16.256 2°54.337 262.5 0.8 99 13.6
2005-08-04 10:59:52 51°16.256 2°54.339 262.6 0.8 91 13.7
2005-08-04 10:59:57 51°16.255 2°54.342 262.3 0.9 89 13.6
2005-08-04 11:00:02 51°16.255 2°54.343 262.1 0.9 89 13.5
2005-08-04 11:00:06 51°16.255 2°54.345 261.8 0.9 96 13.4
2005-08-04 11:00:11 51°16.255 2°54.347 261.6 1 88 13.4
2005-08-04 11:00:17 51°16.255 2°54.349 261.3 1 90 13.4
2005-08-04 11:00:22 51°16.255 2°54.351 261.2 1 90 13.4
2005-08-04 11:00:27 51°16.255 2°54.354 261.2 1 86 13.5
2005-08-04 11:00:32 51°16.255 2°54.357 261.2 1 87 13.6
2005-08-04 11:00:37 51°16.255 2°54.359 261 1.1 91 13.7
2005-08-04 11:00:42 51°16.255 2°54.361 260.5 1.1 90 13.8
2005-08-04 11:00:46 51°16.255 2°54.363 260.1 1.1 86 13.8
2005-08-04 11:00:51 51°16.255 2°54.366 259.2 1.1 86 13.9
2005-08-04 11:00:57 51°16.255 2°54.369 258.9 1.2 87 13.8
2005-08-04 11:01:02 51°16.255 2°54.371 258.5 1.2 88 13.7
2005-08-04 11:01:07 51°16.256 2°54.374 258.2 1.2 90 13.7
2005-08-04 11:01:12 51°16.256 2°54.376 257.6 1.2 90 13.7
2005-08-04 11:01:17 51°16.256 2°54.379 256.8 1.2 90 13.7
2005-08-04 11:01:22 51°16.256 2°54.382 255.8 1.3 91 13.7
2005-08-04 11:01:27 51°16.256 2°54.385 254.7 1.3 91 13.7
2005-08-04 11:01:32 51°16.256 2°54.389 253.6 1.3 91 13.8
2005-08-04 11:01:37 51°16.256 2°54.391 252.5 1.3 87 13.7
2005-08-04 11:01:42 51°16.256 2°54.394 250.8 1.3 87 13.7
2005-08-04 11:01:46 51°16.256 2°54.397 249.3 1.4 87 13.8
2005-08-04 11:01:52 51°16.256 2°54.401 248 1.4 87 13.8
2005-08-04 11:01:57 51°16.256 2°54.404 246.8 1.4 85 13.7
2005-08-04 11:02:02 51°16.256 2°54.407 245.5 1.5 88 13.7
2005-08-04 11:02:07 51°16.256 2°54.41 244.1 1.5 84 13.7
2005-08-04 11:02:11 51°16.256 2°54.413 242.8 1.5 84 13.8
2005-08-04 11:02:15 51°16.256 2°54.416 241.6 1.5 86 13.7
2005-08-04 11:02:22 51°16.256 2°54.42 239.9 1.5 86 13.6
2005-08-04 11:02:27 51°16.256 2°54.424 238.6 1.5 87 13.7
2005-08-04 11:02:31 51°16.256 2°54.426 237.1 1.5 88 13.7
2005-08-04 11:02:37 51°16.256 2°54.43 235.5 1.4 86 13.8
2005-08-04 11:02:42 51°16.256 2°54.434 233.8 1.4 86 13.8
2005-08-04 11:02:47 51°16.257 2°54.437 232.4 1.5 87 13.7
2005-08-04 11:02:51 51°16.257 2°54.44 230.8 1.5 87 13.6
2005-08-04 11:02:57 51°16.257 2°54.444 229.3 1.5 87 13.7
2005-08-04 11:03:02 51°16.257 2°54.446 227.9 1.5 88 13.8
2005-08-04 11:03:06 51°16.257 2°54.449 226.8 1.4 87 13.9